Accueil
METAR-TAF:

METAR-TAF

Aéroports :

Aéroport de Bournemouth

Bornemouth, Angleterre

latitude: 50-47N, longitude: 001-50W, altitude: 11 m

Observation

Le bulletin a été fait il y a 31 minutes, à 19:20 UTC
Vent 7 kt de ouest/sud-ouest
Température 14°C
Humidité 88%
Pression 1027 hPa
Visibilité 10 km ou plus
pas de nuages en-dessous de 1500 mètres et pas de cumulonimbus.

METAR: EGHH 061920Z 24007KT CAVOK 14/12 Q1027

Heure: 20:51 (19:51 UTC)

Prévision

Le bulletin a été fait il y a 2 heures et 51 minutes, à 17:00 UTC
Prévision valable du 06 à 18 UTC au 07 à 03 UTC
Vent 9 kt de sud-ouest
Visibilité 10 km ou plus
Nuages épars à une hauteur de 2000 ft
Probabilité 30% :
Temporairement
du 06 à 21 UTC au 07 à 03 UTC
Visibilité: 8000 m
faibles averses de pluie

TAF: EGHH 061700Z 0618/0703 23009KT 9999 SCT020 PROB30 TEMPO 0621/0703 8000 -SHRA

Observations et prévisions météorologiques de plus de 4000 aéroports (messages METAR et TAF).

Les stations disponibles sont représentées par des disques jaunes et rouges sur la carte.

Passer la souris dessus pour voir le nom de la station.

Cliquer dessus pour voir les observations et prévisions météorologiques.

Pour changer de carte: cliquez sur les boutons verts avec une croix noire pour zoomer, sur le bouton vert avec un tiret pour effectuer un zoom arrière, ou sur les flèches vertes pour les cartes adjacentes.


METAR-TAF: